Information Last Ob Photographs Meteogram Network Table Neighbors Monthly Summaries Observation History Wind Roses Custom Wind Roses Data Calendar Satellite Cloud Product Download Terminal Aerodome Forecast

Most Recent Observation

This application displays the last observation received by the IEM from this site. The time stamp is in America/Chicago timezone.

Observation Local Time15 Apr 2024, 4:53 AM
Observation UTC Time2024-04-15T09:53:00Z
Air Temp [F]64
Maximum Air Temperature [F]69
Minimum Air Temperature [F]64
Dew Point [F]62
Wind DirectionSE (140 degrees)
Wind Speed [knots]5
Altimeter [inches]29.91
Raw Observation/ProductKGGG 150953Z AUTO 14005KT 10SM SCT033 18/17 A2991 RMK AO2 SLP122 T01780167
Cloud Layer 1: SCT (3300 feet)

This data was provided by a JSON(P) webservice. You can find more JSON services.